createdAt,value
2018-12-19T00:01:29.618Z,82.26
2018-12-19T00:03:00.355Z,82.44
2018-12-19T00:04:30.239Z,83.07
2018-12-19T00:06:00.347Z,82.35
2018-12-19T00:07:30.222Z,83.00
2018-12-19T00:09:03.351Z,82.06
2018-12-19T00:10:33.559Z,81.78
2018-12-19T00:12:03.662Z,82.85
2018-12-19T00:13:33.530Z,82.12
2018-12-19T00:15:24.698Z,81.98
2018-12-19T00:16:54.582Z,82.82
2018-12-19T00:23:19.614Z,83.56
2018-12-19T00:24:49.520Z,83.34
2018-12-19T00:26:19.404Z,82.93
2018-12-19T00:27:49.421Z,83.12
2018-12-19T00:29:19.335Z,83.33
2018-12-19T00:30:49.248Z,83.40
2018-12-19T00:32:19.131Z,83.52
2018-12-19T00:33:49.001Z,83.11
2018-12-19T00:35:18.996Z,82.77
2018-12-19T00:36:48.975Z,82.79
2018-12-19T00:38:18.966Z,83.29
2018-12-19T00:39:48.847Z,82.81
2018-12-19T00:41:18.714Z,81.44
2018-12-19T00:42:48.698Z,82.61
2018-12-19T00:44:18.594Z,82.96
2018-12-19T00:45:48.472Z,81.77
2018-12-19T00:47:18.358Z,83.16
2018-12-19T00:48:48.259Z,82.74
2018-12-19T00:50:18.144Z,82.10
2018-12-19T00:51:48.036Z,81.79
2018-12-19T00:53:17.889Z,82.48
2018-12-19T00:54:47.804Z,83.11
2018-12-19T00:56:17.687Z,82.50
2018-12-19T00:57:47.559Z,82.89
2018-12-19T00:59:17.423Z,82.81
2018-12-19T01:00:47.426Z,83.16
2018-12-19T01:02:17.295Z,82.41
2018-12-19T01:03:47.165Z,82.83
2018-12-19T01:05:17.128Z,82.97
2018-12-19T01:06:59.926Z,83.05
2018-12-19T01:08:29.915Z,83.22
2018-12-19T01:09:59.814Z,83.42
2018-12-19T01:11:29.719Z,83.47
2018-12-19T01:12:59.599Z,82.42
2018-12-19T01:14:29.487Z,82.69
2018-12-19T01:15:59.376Z,82.44
2018-12-19T01:17:29.251Z,83.53
2018-12-19T01:18:59.203Z,82.87
2018-12-19T01:20:29.102Z,82.24
2018-12-19T01:21:58.970Z,82.44
2018-12-19T01:23:28.871Z,83.83
2018-12-19T01:24:58.783Z,82.87
2018-12-19T01:26:28.697Z,83.36
2018-12-19T01:27:58.580Z,83.23
2018-12-19T01:29:28.464Z,83.64
2018-12-19T01:30:58.655Z,83.10
2018-12-19T01:32:28.528Z,83.87
2018-12-19T01:33:59.702Z,83.00
2018-12-19T01:35:29.599Z,82.96
2018-12-19T01:36:59.454Z,83.05
2018-12-19T01:38:29.321Z,82.93
2018-12-19T01:39:59.223Z,82.73
2018-12-19T01:41:29.083Z,83.09
2018-12-19T01:42:58.976Z,83.04
2018-12-19T01:44:28.844Z,82.66
2018-12-19T01:45:59.122Z,83.13
2018-12-19T01:47:29.127Z,83.02
2018-12-19T01:48:59.038Z,83.58
2018-12-19T01:50:28.924Z,83.46
2018-12-19T01:51:58.790Z,82.57
2018-12-19T01:53:28.651Z,82.66
2018-12-19T01:54:58.539Z,83.23
2018-12-19T01:56:29.198Z,82.44
2018-12-19T01:57:59.060Z,82.53
2018-12-19T01:59:28.933Z,83.29
2018-12-19T02:00:59.646Z,81.78
2018-12-19T02:02:30.591Z,81.89
2018-12-19T02:04:00.640Z,82.50
2018-12-19T02:05:30.661Z,83.87
2018-12-19T02:07:00.858Z,82.75
2018-12-19T02:08:30.732Z,83.43
2018-12-19T02:10:00.984Z,82.26
2018-12-19T02:11:30.855Z,83.38
2018-12-19T02:13:00.783Z,82.91
2018-12-19T02:14:32.025Z,82.96
2018-12-19T02:16:10.210Z,83.42
2018-12-19T02:17:40.068Z,84.04
2018-12-19T02:19:10.046Z,82.60
2018-12-19T02:20:39.919Z,83.93
2018-12-19T02:22:09.799Z,82.78
2018-12-19T02:23:40.458Z,83.96
2018-12-19T02:25:10.384Z,83.62
2018-12-19T02:26:40.253Z,84.05
2018-12-19T02:28:10.126Z,83.12
2018-12-19T02:29:39.999Z,83.84
2018-12-19T02:31:09.936Z,83.39
2018-12-19T02:32:39.812Z,82.91
2018-12-19T02:34:09.835Z,83.47
2018-12-19T02:35:39.864Z,82.66
2018-12-19T02:37:09.854Z,83.54
2018-12-19T02:38:39.720Z,83.83
2018-12-19T02:40:09.629Z,83.18
2018-12-19T02:41:39.527Z,82.74
2018-12-19T02:43:09.394Z,84.08
2018-12-19T02:44:47.021Z,82.48
2018-12-19T02:46:16.890Z,83.97
2018-12-19T02:47:46.755Z,83.56
2018-12-19T02:49:16.639Z,82.64
2018-12-19T02:50:46.511Z,82.73
2018-12-19T02:52:16.382Z,82.78
2018-12-19T02:53:46.275Z,82.91
2018-12-19T02:55:16.248Z,82.43
2018-12-19T02:56:46.115Z,83.14
2018-12-19T02:58:16.102Z,83.33
2018-12-19T02:59:45.989Z,82.30
2018-12-19T03:01:15.865Z,82.02
2018-12-19T03:02:45.735Z,82.34
2018-12-19T03:04:15.717Z,82.36
2018-12-19T03:05:45.613Z,82.25
2018-12-19T03:07:15.702Z,82.61
2018-12-19T03:08:59.287Z,82.50
2018-12-19T03:10:29.173Z,83.83
2018-12-19T03:11:59.166Z,83.69
2018-12-19T03:13:29.775Z,83.25
2018-12-19T03:14:59.660Z,83.14
2018-12-19T03:16:29.710Z,83.85
2018-12-19T03:17:59.581Z,82.52
2018-12-19T03:19:29.467Z,83.24
2018-12-19T03:20:59.337Z,82.20
2018-12-19T03:22:29.199Z,82.36
2018-12-19T03:23:59.067Z,83.88
2018-12-19T03:25:28.951Z,83.60
2018-12-19T03:26:58.831Z,82.48
2018-12-19T03:28:28.695Z,83.88
2018-12-19T03:29:58.587Z,83.08
2018-12-19T03:31:28.468Z,83.41
2018-12-19T03:32:58.355Z,83.36
2018-12-19T03:34:28.333Z,84.25
2018-12-19T03:35:58.319Z,82.92
2018-12-19T03:37:28.322Z,83.46
2018-12-19T03:38:58.193Z,82.73
2018-12-19T03:40:28.313Z,83.16
2018-12-19T03:41:58.397Z,82.97
2018-12-19T03:43:28.495Z,83.37
2018-12-19T03:44:58.360Z,83.19
2018-12-19T03:46:28.247Z,83.21
2018-12-19T03:47:58.114Z,82.88
2018-12-19T03:49:28.099Z,83.62
2018-12-19T03:50:58.089Z,83.44
2018-12-19T03:52:27.977Z,83.62
2018-12-19T03:53:57.834Z,82.80
2018-12-19T03:55:27.710Z,84.05
2018-12-19T03:56:57.598Z,82.86
2018-12-19T03:58:27.458Z,84.25
2018-12-19T04:00:10.283Z,83.62
2018-12-19T04:01:40.156Z,83.92
2018-12-19T04:03:10.017Z,83.28
2018-12-19T04:04:40.100Z,83.30
2018-12-19T04:06:09.968Z,83.29
2018-12-19T04:07:39.861Z,83.17
2018-12-19T04:09:09.739Z,83.55
2018-12-19T04:10:48.499Z,83.62
2018-12-19T04:12:18.407Z,83.87
2018-12-19T04:13:48.273Z,83.09
2018-12-19T04:15:18.147Z,83.58
2018-12-19T04:16:48.140Z,83.55
2018-12-19T04:18:18.031Z,84.11
2018-12-19T04:19:47.894Z,84.06
2018-12-19T04:21:17.811Z,84.39
2018-12-19T04:22:47.798Z,83.92
2018-12-19T04:24:17.670Z,85.30
2018-12-19T04:25:47.584Z,84.93
2018-12-19T04:27:17.544Z,85.31
2018-12-19T04:28:47.528Z,84.92
2018-12-19T04:30:17.408Z,85.76
2018-12-19T04:31:47.283Z,84.80
2018-12-19T04:33:17.264Z,84.22
2018-12-19T04:34:47.163Z,85.21
2018-12-19T04:36:17.182Z,85.22
2018-12-19T04:37:47.053Z,85.67
2018-12-19T04:39:16.930Z,85.55
2018-12-19T04:40:46.920Z,86.06
2018-12-19T04:42:16.786Z,84.98
2018-12-19T04:43:46.683Z,85.90
2018-12-19T04:45:16.693Z,85.06
2018-12-19T04:46:46.698Z,85.71
2018-12-19T04:48:16.555Z,86.89
2018-12-19T04:49:46.462Z,87.27
2018-12-19T04:51:16.435Z,87.32
2018-12-19T04:53:10.250Z,87.76
2018-12-19T04:54:40.131Z,87.95
2018-12-19T04:56:10.303Z,87.95
2018-12-19T04:57:40.172Z,88.02
2018-12-19T04:59:10.031Z,87.44
2018-12-19T05:00:39.914Z,87.99
2018-12-19T05:02:09.783Z,88.47
2018-12-19T05:03:52.772Z,88.25
2018-12-19T05:05:22.767Z,88.90
2018-12-19T05:06:52.661Z,88.68
2018-12-19T05:08:22.540Z,87.88
2018-12-19T05:10:26.844Z,89.41
2018-12-19T05:11:56.844Z,89.50
2018-12-19T05:13:41.252Z,89.14
2018-12-19T05:15:11.262Z,89.72
2018-12-19T05:16:41.139Z,88.32
2018-12-19T05:18:11.122Z,88.43
2018-12-19T05:19:41.360Z,87.89
2018-12-19T05:21:25.183Z,87.83
2018-12-19T05:23:03.195Z,87.87
2018-12-19T05:24:33.068Z,87.59
2018-12-19T05:26:03.186Z,87.20
2018-12-19T05:27:33.050Z,88.22
2018-12-19T05:29:03.044Z,88.22
2018-12-19T05:30:33.071Z,87.84
2018-12-19T05:32:03.187Z,87.82
2018-12-19T05:33:33.058Z,87.60
2018-12-19T05:35:03.531Z,86.92
2018-12-19T05:36:33.415Z,87.49
2018-12-19T05:38:03.294Z,87.61
2018-12-19T05:39:33.159Z,87.04
2018-12-19T05:41:03.033Z,87.51
2018-12-19T05:42:33.010Z,86.76
2018-12-19T05:44:03.015Z,87.99
2018-12-19T05:45:32.873Z,87.82
2018-12-19T05:47:02.867Z,86.69
2018-12-19T05:48:32.773Z,86.55
2018-12-19T05:50:03.439Z,87.72
2018-12-19T05:51:33.439Z,87.71
2018-12-19T05:53:03.317Z,87.11
2018-12-19T05:54:33.322Z,86.34
2018-12-19T05:56:03.323Z,86.54
2018-12-19T05:57:33.323Z,87.38
2018-12-19T05:59:03.323Z,87.67
2018-12-19T06:00:33.597Z,86.47
2018-12-19T06:02:03.817Z,87.62
2018-12-19T06:03:33.684Z,87.73
2018-12-19T06:05:04.638Z,88.31
2018-12-19T06:06:34.529Z,87.95
2018-12-19T06:08:04.514Z,87.90
2018-12-19T06:09:44.878Z,87.90
2018-12-19T06:11:14.746Z,87.23
2018-12-19T06:12:44.619Z,87.75
2018-12-19T06:14:14.493Z,86.93
2018-12-19T06:15:44.512Z,86.80
2018-12-19T06:17:14.395Z,87.16
2018-12-19T06:18:44.386Z,87.04
2018-12-19T06:20:14.267Z,87.13
2018-12-19T06:21:44.158Z,87.56
2018-12-19T06:23:14.030Z,88.85
2018-12-19T06:24:43.897Z,88.08
2018-12-19T06:26:13.777Z,89.00
2018-12-19T06:27:43.748Z,89.25
2018-12-19T06:29:24.017Z,88.98
2018-12-19T06:33:18.425Z,88.55
2018-12-19T06:34:48.288Z,89.27
2018-12-19T06:36:18.231Z,88.95
2018-12-19T06:37:48.118Z,89.25
2018-12-19T06:39:18.103Z,88.37
2018-12-19T06:40:47.990Z,89.62
2018-12-19T06:42:17.994Z,88.90
2018-12-19T06:43:47.860Z,89.45
2018-12-19T06:45:17.740Z,89.80
2018-12-19T06:46:47.625Z,89.39
2018-12-19T06:48:17.554Z,89.20
2018-12-19T06:49:47.421Z,89.28
2018-12-19T06:51:18.930Z,89.39
2018-12-19T06:52:49.050Z,88.85
2018-12-19T06:54:19.018Z,89.27
2018-12-19T06:55:48.988Z,89.62
2018-12-19T06:57:59.933Z,89.52
2018-12-19T06:59:45.159Z,90.18
2018-12-19T07:01:15.030Z,90.58
2018-12-19T07:02:45.018Z,90.30
2018-12-19T07:04:15.004Z,90.82
2018-12-19T07:05:44.993Z,91.92
2018-12-19T07:07:14.875Z,92.67
2018-12-19T07:08:44.741Z,91.70
2018-12-19T07:11:03.924Z,92.72
2018-12-19T07:12:33.799Z,94.91
2018-12-19T07:14:03.803Z,94.46
2018-12-19T07:15:33.803Z,93.27
2018-12-19T07:19:49.051Z,90.36
2018-12-19T07:21:18.922Z,87.26
2018-12-19T07:22:48.824Z,86.83
2018-12-19T07:24:18.885Z,85.80
2018-12-19T07:27:17.166Z,87.00
2018-12-19T07:28:47.155Z,86.34
2018-12-19T07:30:17.032Z,85.34
2018-12-19T07:31:46.923Z,85.32
2018-12-19T07:33:16.800Z,86.55
2018-12-19T07:34:46.816Z,87.16
2018-12-19T07:36:16.835Z,87.99
2018-12-19T07:37:46.823Z,90.42
2018-12-19T07:39:17.236Z,91.95
2018-12-19T07:40:47.197Z,91.77
2018-12-19T07:42:17.216Z,91.52
2018-12-19T07:43:47.191Z,92.91
2018-12-19T07:45:17.262Z,92.74
2018-12-19T07:46:47.265Z,92.51
2018-12-19T07:48:17.604Z,93.40
2018-12-19T07:49:47.564Z,92.72
2018-12-19T07:51:17.630Z,93.17
2018-12-19T07:52:47.959Z,91.25
2018-12-19T07:54:17.887Z,91.82
2018-12-19T07:55:48.084Z,92.06
2018-12-19T07:57:18.073Z,91.87
2018-12-19T07:58:48.019Z,90.10
2018-12-19T08:00:18.001Z,90.57
2018-12-19T08:01:47.987Z,90.20
2018-12-19T08:03:17.947Z,89.01
2018-12-19T08:04:48.110Z,90.02
2018-12-19T08:06:18.091Z,89.95
2018-12-19T08:07:48.037Z,89.49
2018-12-19T08:09:17.971Z,88.26
2018-12-19T08:10:52.145Z,88.09
2018-12-19T08:12:19.944Z,87.40
2018-12-19T08:13:49.932Z,88.24
2018-12-19T08:15:19.887Z,85.77
2018-12-19T08:16:49.976Z,82.52
2018-12-19T08:18:19.922Z,81.10
2018-12-19T08:19:49.896Z,82.36
2018-12-19T08:21:19.993Z,80.94
2018-12-19T08:22:49.964Z,82.01
2018-12-19T08:24:19.953Z,82.08
2018-12-19T08:25:49.883Z,80.82
2018-12-19T08:27:26.814Z,82.15
2018-12-19T08:28:56.902Z,82.00
2018-12-19T08:30:26.843Z,81.63
2018-12-19T08:31:56.923Z,82.73
2018-12-19T08:33:26.881Z,81.92
2018-12-19T08:35:15.739Z,81.92
2018-12-19T08:36:45.692Z,83.01
2018-12-19T08:38:15.621Z,84.21
2018-12-19T08:39:45.547Z,85.18
2018-12-19T08:41:15.532Z,83.67
2018-12-19T08:42:45.509Z,83.97
2018-12-19T08:44:15.510Z,82.32
2018-12-19T08:45:45.864Z,82.37
2018-12-19T08:47:15.828Z,83.08
2018-12-19T08:48:45.782Z,83.59
2018-12-19T08:50:15.811Z,84.07
2018-12-19T08:51:45.924Z,84.18
2018-12-19T08:53:15.860Z,84.13
2018-12-19T08:54:45.763Z,84.45
2018-12-19T08:56:15.688Z,84.65
2018-12-19T08:57:58.872Z,84.91
2018-12-19T08:59:28.877Z,85.48
2018-12-19T09:00:58.839Z,84.44
2018-12-19T09:02:28.914Z,83.78
2018-12-19T09:03:58.860Z,84.21
2018-12-19T09:05:28.952Z,83.52
2018-12-19T09:06:58.898Z,83.78
2018-12-19T09:08:28.919Z,84.61
2018-12-19T09:09:58.820Z,83.76
2018-12-19T09:11:28.795Z,83.88
2018-12-19T09:12:58.746Z,83.47
2018-12-19T09:14:28.677Z,84.33
2018-12-19T09:16:05.275Z,85.71
2018-12-19T09:17:35.866Z,86.56
2018-12-19T09:19:20.743Z,86.52
2018-12-19T09:20:50.825Z,87.71
2018-12-19T09:22:21.684Z,85.69
2018-12-19T09:23:51.688Z,87.04
2018-12-19T09:25:21.776Z,85.56
2018-12-19T09:26:51.721Z,85.25
2018-12-19T09:28:21.761Z,85.62
2018-12-19T09:29:51.672Z,85.21
2018-12-19T09:31:21.787Z,85.72
2018-12-19T09:32:52.670Z,85.83
2018-12-19T09:34:22.884Z,86.77
2018-12-19T09:35:52.855Z,87.33
2018-12-19T09:37:22.889Z,87.34
2018-12-19T09:38:53.008Z,87.39
2018-12-19T09:40:22.935Z,86.94
2018-12-19T09:41:52.980Z,87.13
2018-12-19T09:43:22.927Z,86.01
2018-12-19T09:44:52.883Z,86.10
2018-12-19T09:46:22.832Z,86.19
2018-12-19T09:47:52.812Z,87.01
2018-12-19T09:49:22.773Z,87.27
2018-12-19T09:51:00.914Z,86.55
2018-12-19T09:52:31.075Z,86.96
2018-12-19T09:54:01.133Z,86.53
2018-12-19T09:55:31.072Z,85.36
2018-12-19T09:57:01.024Z,86.21
2018-12-19T09:58:31.119Z,86.00
2018-12-19T10:00:01.035Z,86.39
2018-12-19T10:01:30.949Z,85.83
2018-12-19T10:03:01.001Z,84.38
2018-12-19T10:04:30.972Z,84.67
2018-12-19T10:06:00.847Z,85.38
2018-12-19T10:07:34.075Z,84.55
2018-12-19T10:09:07.668Z,84.70
2018-12-19T10:10:38.567Z,85.59
2018-12-19T10:12:08.483Z,85.82
2018-12-19T10:13:38.352Z,86.12
2018-12-19T10:15:08.239Z,84.66
2018-12-19T10:16:38.123Z,85.42
2018-12-19T10:18:08.032Z,84.20
2018-12-19T10:19:37.951Z,84.18
2018-12-19T10:21:07.971Z,84.43
2018-12-19T10:22:38.007Z,85.57
2018-12-19T10:24:07.896Z,84.26
2018-12-19T10:25:37.762Z,84.30
2018-12-19T10:27:07.670Z,85.76
2018-12-19T10:28:37.636Z,84.13
2018-12-19T10:30:09.751Z,85.58
2018-12-19T10:31:39.690Z,85.80
2018-12-19T10:33:09.842Z,85.09
2018-12-19T10:34:42.722Z,85.52
2018-12-19T10:36:12.744Z,84.26
2018-12-19T10:37:42.847Z,84.39
2018-12-19T10:39:16.167Z,84.56
2018-12-19T10:40:46.067Z,82.80
2018-12-19T10:42:16.059Z,82.47
2018-12-19T10:43:46.027Z,82.37
2018-12-19T10:45:16.050Z,82.78
2018-12-19T10:46:46.287Z,82.49
2018-12-19T10:48:16.242Z,80.95
2018-12-19T10:49:46.326Z,81.68
2018-12-19T10:51:16.371Z,82.24
2018-12-19T10:52:46.464Z,81.58
2018-12-19T10:54:16.878Z,81.66
2018-12-19T10:55:46.868Z,81.08
2018-12-19T10:57:16.845Z,82.22
2018-12-19T10:58:46.961Z,81.46
2018-12-19T11:00:23.020Z,80.85
2018-12-19T11:01:53.054Z,80.75
2018-12-19T11:03:23.151Z,80.43
2018-12-19T11:04:54.316Z,80.36
2018-12-19T11:06:24.621Z,80.97
2018-12-19T11:07:54.974Z,81.22
2018-12-19T11:09:25.086Z,82.12
2018-12-19T11:10:55.378Z,82.02
2018-12-19T11:12:25.572Z,83.12
2018-12-19T11:13:55.693Z,83.10
2018-12-19T11:15:25.765Z,85.04
2018-12-19T11:16:56.142Z,85.58
2018-12-19T11:18:26.741Z,84.67
2018-12-19T11:19:57.230Z,84.81
2018-12-19T11:21:27.355Z,85.15
2018-12-19T11:22:57.874Z,85.18
2018-12-19T11:24:28.121Z,84.20
2018-12-19T11:25:58.251Z,85.21
2018-12-19T11:27:28.505Z,86.05
2018-12-19T11:28:58.952Z,85.55
2018-12-19T11:30:29.168Z,84.99
2018-12-19T11:31:59.307Z,84.63
2018-12-19T11:33:29.763Z,84.27
2018-12-19T11:34:59.936Z,83.43
2018-12-19T11:36:30.026Z,83.56
2018-12-19T11:38:00.087Z,83.59
2018-12-19T11:39:30.090Z,84.02
2018-12-19T11:41:00.053Z,83.92
2018-12-19T11:42:30.086Z,83.37
2018-12-19T11:44:00.084Z,83.43
2018-12-19T11:45:30.031Z,82.43
2018-12-19T11:47:00.035Z,83.31
2018-12-19T11:48:30.040Z,84.37
2018-12-19T11:50:00.061Z,83.26
2018-12-19T11:51:30.100Z,83.84
2018-12-19T11:53:00.076Z,84.05
2018-12-19T11:54:30.008Z,83.01
2018-12-19T11:56:00.051Z,83.64
2018-12-19T11:57:30.203Z,84.34
2018-12-19T11:59:00.254Z,84.73
2018-12-19T12:00:30.435Z,84.88
2018-12-19T12:02:00.637Z,83.98
2018-12-19T12:03:30.910Z,84.32
2018-12-19T12:06:56.759Z,84.52
2018-12-19T12:08:26.848Z,84.55
2018-12-19T12:10:20.497Z,84.40
2018-12-19T12:11:50.581Z,83.70
2018-12-19T12:13:21.080Z,83.56
2018-12-19T12:14:51.185Z,83.41
2018-12-19T12:16:21.451Z,82.52
2018-12-19T12:17:51.556Z,81.67
2018-12-19T12:19:21.740Z,82.05
2018-12-19T12:20:51.867Z,81.24
2018-12-19T12:22:22.641Z,81.47
2018-12-19T12:23:53.154Z,80.92
2018-12-19T12:25:23.254Z,81.72
2018-12-19T12:26:53.941Z,81.44
2018-12-19T12:28:24.089Z,80.01
2018-12-19T12:29:54.644Z,80.93
2018-12-19T12:31:24.783Z,80.36
2018-12-19T12:32:55.479Z,81.32
2018-12-19T12:34:25.587Z,81.24
2018-12-19T12:35:55.943Z,81.31
2018-12-19T12:37:26.036Z,81.38
2018-12-19T12:38:56.300Z,80.49
2018-12-19T12:40:26.372Z,80.54
2018-12-19T12:41:56.600Z,80.47
2018-12-19T12:43:26.779Z,81.47
2018-12-19T12:44:57.106Z,81.47
2018-12-19T12:46:27.607Z,82.98
2018-12-19T12:47:57.726Z,82.71
2018-12-19T12:49:27.847Z,81.60
2018-12-19T12:50:58.190Z,81.53
2018-12-19T12:52:28.259Z,81.38
2018-12-19T12:53:58.307Z,81.83
2018-12-19T12:55:28.384Z,81.51
2018-12-19T12:56:58.657Z,80.56
2018-12-19T12:58:28.747Z,81.02
2018-12-19T12:59:58.982Z,80.95
2018-12-19T13:01:29.007Z,81.81
2018-12-19T13:02:59.100Z,81.45
2018-12-19T13:04:29.106Z,80.16
2018-12-19T13:05:59.314Z,81.26
2018-12-19T13:07:29.495Z,79.74
2018-12-19T13:08:59.821Z,80.15
2018-12-19T13:10:36.125Z,80.11
2018-12-19T13:12:02.115Z,80.03
2018-12-19T13:13:32.178Z,80.00
2018-12-19T13:15:02.486Z,80.53
2018-12-19T13:16:32.747Z,80.51
2018-12-19T13:18:03.071Z,81.11
2018-12-19T13:21:29.659Z,82.62
2018-12-19T13:24:55.231Z,81.94
2018-12-19T13:26:25.270Z,82.17
2018-12-19T13:27:55.542Z,82.89
2018-12-19T13:29:25.970Z,83.40
2018-12-19T13:30:56.246Z,82.02
2018-12-19T13:32:26.643Z,82.55
2018-12-19T13:33:56.759Z,83.40
2018-12-19T13:35:26.851Z,83.12
2018-12-19T13:36:57.006Z,82.79
2018-12-19T13:38:27.014Z,84.12
2018-12-19T13:39:57.052Z,83.45
2018-12-19T13:41:27.170Z,83.74
2018-12-19T13:42:57.144Z,83.00
2018-12-19T13:44:27.114Z,83.71
2018-12-19T13:45:57.200Z,82.84
2018-12-19T13:47:27.230Z,83.36
2018-12-19T13:48:57.293Z,82.77
2018-12-19T13:50:27.382Z,83.01
2018-12-19T13:51:58.073Z,83.37
2018-12-19T13:53:28.160Z,83.23
2018-12-19T13:54:58.332Z,83.62
2018-12-19T13:56:28.353Z,83.41
2018-12-19T13:57:58.356Z,83.18
2018-12-19T13:59:28.410Z,81.50
2018-12-19T14:00:58.478Z,82.81
2018-12-19T14:02:28.576Z,82.22
2018-12-19T14:03:58.572Z,83.64
2018-12-19T14:05:36.721Z,83.88
2018-12-19T14:07:07.506Z,83.87
2018-12-19T14:10:33.536Z,83.18
2018-12-19T14:12:03.997Z,83.13
2018-12-19T14:13:34.449Z,83.11
2018-12-19T14:15:05.558Z,83.06
2018-12-19T14:16:35.668Z,82.09
2018-12-19T14:18:05.991Z,82.53
2018-12-19T14:19:36.523Z,82.46
2018-12-19T14:21:06.766Z,82.11
2018-12-19T14:22:37.202Z,81.90
2018-12-19T14:24:07.303Z,83.04
2018-12-19T14:25:37.689Z,82.48
2018-12-19T14:27:07.927Z,82.60
2018-12-19T14:28:37.966Z,81.91
2018-12-19T14:30:08.880Z,82.93
2018-12-19T14:31:39.381Z,83.21
2018-12-19T14:33:09.499Z,82.99
2018-12-19T14:34:40.357Z,82.21
2018-12-19T14:36:10.348Z,82.54
2018-12-19T14:37:40.322Z,82.50
2018-12-19T14:39:10.595Z,82.49
2018-12-19T14:41:00.360Z,83.13
2018-12-19T14:42:30.720Z,83.77
2018-12-19T14:44:00.848Z,83.17
2018-12-19T14:45:31.019Z,83.48
2018-12-19T14:47:01.286Z,84.17
2018-12-19T14:48:31.455Z,84.33
2018-12-19T14:50:01.584Z,84.63
2018-12-19T14:51:32.314Z,83.74
2018-12-19T14:53:02.786Z,84.81
2018-12-19T14:54:32.946Z,85.14
2018-12-19T14:56:03.060Z,85.01
2018-12-19T14:57:33.097Z,85.03
2018-12-19T14:59:03.333Z,85.13
2018-12-19T15:00:33.775Z,84.96
2018-12-19T15:02:04.404Z,84.91
2018-12-19T15:03:34.369Z,85.09
2018-12-19T15:05:04.588Z,85.76
2018-12-19T15:06:34.623Z,85.41
2018-12-19T15:08:04.905Z,86.31
2018-12-19T15:09:35.008Z,85.30
2018-12-19T15:11:05.225Z,86.11
2018-12-19T15:12:35.347Z,85.05
2018-12-19T15:14:05.669Z,85.95
2018-12-19T15:15:35.917Z,85.14
2018-12-19T15:17:06.192Z,85.03
2018-12-19T15:18:36.216Z,85.63
2018-12-19T15:20:06.716Z,84.56
2018-12-19T15:21:37.469Z,85.10
2018-12-19T15:23:07.427Z,85.42
2018-12-19T15:24:37.460Z,87.52
2018-12-19T15:26:07.453Z,87.89
2018-12-19T15:27:37.452Z,86.95
2018-12-19T15:29:07.782Z,86.22
2018-12-19T15:30:37.797Z,86.11
2018-12-19T15:32:07.789Z,85.45
2018-12-19T15:33:37.745Z,85.77
2018-12-19T15:35:07.935Z,85.54
2018-12-19T15:36:38.179Z,85.97
2018-12-19T15:38:08.099Z,86.87
2018-12-19T15:39:38.084Z,85.61
2018-12-19T15:41:08.133Z,86.29
2018-12-19T15:42:38.109Z,84.43
2018-12-19T15:44:08.089Z,84.88
2018-12-19T15:45:38.143Z,84.60
2018-12-19T15:47:08.116Z,83.88
2018-12-19T15:48:38.057Z,84.06
2018-12-19T15:50:08.243Z,84.09
2018-12-19T15:51:38.260Z,84.31
2018-12-19T15:53:08.199Z,83.38
2018-12-19T15:54:38.291Z,83.17
2018-12-19T15:56:08.363Z,83.25
2018-12-19T15:57:38.405Z,83.11
2018-12-19T15:59:08.390Z,83.81
2018-12-19T16:00:38.361Z,83.20
2018-12-19T16:02:08.323Z,83.63
2018-12-19T16:03:38.292Z,82.79
2018-12-19T16:05:08.335Z,82.21
2018-12-19T16:06:38.276Z,83.65
2018-12-19T16:08:08.376Z,83.70
2018-12-19T16:09:38.477Z,83.24
2018-12-19T16:11:08.408Z,82.78
2018-12-19T16:12:41.879Z,83.17
2018-12-19T16:14:11.876Z,83.43
2018-12-19T16:15:41.838Z,83.99
2018-12-19T16:17:11.812Z,83.85
2018-12-19T16:18:41.852Z,83.88
2018-12-19T16:20:11.836Z,83.64
2018-12-19T16:21:41.798Z,84.41
2018-12-19T16:23:11.728Z,83.37
2018-12-19T16:24:41.735Z,84.47
2018-12-19T16:26:17.642Z,84.04
2018-12-19T16:27:47.561Z,85.33
2018-12-19T16:29:17.540Z,85.81
2018-12-19T16:30:47.520Z,84.40
2018-12-19T16:32:17.492Z,83.95
2018-12-19T16:33:47.556Z,84.08
2018-12-19T16:35:17.547Z,84.13
2018-12-19T16:36:47.486Z,84.30
2018-12-19T16:38:18.352Z,85.08
2018-12-19T16:39:48.570Z,84.00
2018-12-19T16:41:18.467Z,84.17
2018-12-19T16:42:48.363Z,84.90
2018-12-19T16:44:18.278Z,84.83
2018-12-19T16:45:48.283Z,83.77
2018-12-19T16:47:18.163Z,83.78
2018-12-19T16:48:48.482Z,83.26
2018-12-19T16:50:18.433Z,84.05
2018-12-19T16:51:48.432Z,83.35
2018-12-19T16:53:18.450Z,84.42
2018-12-19T16:54:48.379Z,83.81
2018-12-19T16:56:18.371Z,83.29
2018-12-19T16:57:48.675Z,83.26
2018-12-19T16:59:18.613Z,82.80
2018-12-19T17:00:48.505Z,82.95
2018-12-19T17:02:18.400Z,83.30
2018-12-19T17:03:48.295Z,83.55
2018-12-19T17:05:18.552Z,84.59
2018-12-19T17:06:48.568Z,84.71
2018-12-19T17:08:18.450Z,84.68
2018-12-19T17:09:48.357Z,84.60
2018-12-19T17:11:18.259Z,84.88
2018-12-19T17:12:52.766Z,83.65
2018-12-19T17:14:20.347Z,84.65
2018-12-19T17:15:50.388Z,84.53
2018-12-19T17:17:20.355Z,85.31
2018-12-19T17:18:50.420Z,85.56
2018-12-19T17:20:20.448Z,85.96
2018-12-19T17:21:50.442Z,84.89
2018-12-19T17:23:20.493Z,85.40
2018-12-19T17:24:50.493Z,85.98
2018-12-19T17:26:20.383Z,84.96
2018-12-19T17:27:50.412Z,85.03
2018-12-19T17:29:20.414Z,85.58
2018-12-19T17:30:50.329Z,85.84
2018-12-19T17:32:20.355Z,84.99
2018-12-19T17:33:50.328Z,84.87
2018-12-19T17:35:20.749Z,85.02
2018-12-19T17:36:50.944Z,84.75
2018-12-19T17:38:20.902Z,84.68
2018-12-19T17:39:50.898Z,85.48
2018-12-19T17:41:20.898Z,85.92
2018-12-19T17:42:51.285Z,86.09
2018-12-19T17:44:21.341Z,85.75
2018-12-19T17:45:51.436Z,86.59
2018-12-19T17:47:21.477Z,85.68
2018-12-19T17:48:51.571Z,85.77
2018-12-19T17:50:21.520Z,85.51
2018-12-19T17:51:51.808Z,84.93
2018-12-19T17:53:21.797Z,84.83
2018-12-19T17:54:51.775Z,84.62
2018-12-19T17:56:27.947Z,86.15
2018-12-19T17:57:57.869Z,85.24
2018-12-19T17:59:28.025Z,85.57
2018-12-19T18:00:57.975Z,85.27
2018-12-19T18:02:27.887Z,84.96
2018-12-19T18:03:57.891Z,84.89
2018-12-19T18:05:28.029Z,85.46
2018-12-19T18:06:57.960Z,85.48
2018-12-19T18:08:29.154Z,85.61
2018-12-19T18:09:59.575Z,86.06
2018-12-19T18:11:29.534Z,87.60
2018-12-19T18:13:05.976Z,89.19
2018-12-19T18:14:31.583Z,89.83
2018-12-19T18:16:01.640Z,90.53
2018-12-19T18:17:31.593Z,90.75
2018-12-19T18:19:01.624Z,90.57
2018-12-19T18:20:31.531Z,90.22
2018-12-19T18:22:01.643Z,90.13
2018-12-19T18:23:31.767Z,89.22
2018-12-19T18:25:01.786Z,88.76
2018-12-19T18:26:31.821Z,88.43
2018-12-19T18:28:01.739Z,87.28
2018-12-19T18:29:31.721Z,87.83
2018-12-19T18:31:02.176Z,86.62
2018-12-19T18:32:32.129Z,87.29
2018-12-19T18:34:02.093Z,86.90
2018-12-19T18:35:32.098Z,87.54
2018-12-19T18:37:02.292Z,86.41
2018-12-19T18:38:32.324Z,86.63
2018-12-19T18:40:02.495Z,87.15
2018-12-19T18:41:32.386Z,86.07
2018-12-19T18:43:02.468Z,86.83
2018-12-19T18:44:32.595Z,86.21
2018-12-19T18:46:03.573Z,85.60
2018-12-19T18:47:33.495Z,85.74
2018-12-19T18:49:04.046Z,86.79
2018-12-19T18:50:34.080Z,86.53
2018-12-19T18:52:03.992Z,86.57
2018-12-19T18:53:33.897Z,87.35
2018-12-19T18:55:04.592Z,87.54
2018-12-19T18:56:34.524Z,86.81
2018-12-19T18:58:10.439Z,87.60
2018-12-19T18:59:40.591Z,86.04
2018-12-19T19:01:10.524Z,88.01
2018-12-19T19:02:41.119Z,87.62
2018-12-19T19:04:11.111Z,88.26
2018-12-19T19:05:41.297Z,88.30
2018-12-19T19:07:11.801Z,87.25
2018-12-19T19:08:41.799Z,86.76
2018-12-19T19:10:14.157Z,87.00
2018-12-19T19:11:44.063Z,87.74
2018-12-19T19:13:19.626Z,87.16
2018-12-19T19:14:46.012Z,87.62
2018-12-19T19:16:16.059Z,87.32
2018-12-19T19:17:46.183Z,87.53
2018-12-19T19:19:16.096Z,88.56
2018-12-19T19:20:46.202Z,87.92
2018-12-19T19:22:16.116Z,88.95
2018-12-19T19:23:46.018Z,88.00
2018-12-19T19:25:16.119Z,87.79
2018-12-19T19:26:46.069Z,89.01
2018-12-19T19:28:15.968Z,89.04
2018-12-19T19:29:45.928Z,88.91
2018-12-19T19:31:15.810Z,88.83
2018-12-19T19:32:45.838Z,88.56
2018-12-19T19:34:16.748Z,88.31
2018-12-19T19:35:47.070Z,88.46
2018-12-19T19:37:17.091Z,88.40
2018-12-19T19:38:47.124Z,87.83
2018-12-19T19:40:17.065Z,88.13
2018-12-19T19:41:47.969Z,87.57
2018-12-19T19:43:17.875Z,86.51
2018-12-19T19:44:47.902Z,86.30
2018-12-19T19:46:18.023Z,87.57
2018-12-19T19:47:47.969Z,86.73